»·PEaware :: N5342F KSMX-KBFL

N5342F :: KSMX-KBFL

FLIGHT INFORMATION

Flight Status: Arrived
Operator: Privately registered:
United States
More flights under this callsign
Pilot: Noel C. (41612)
Aircraft: PIPER PA-28 CHEROKEE ARCHER
(P28A)
More flights by this aircraft type
Origin: KSMX Santa Maria Pub/Capt Hancock
United States
Destination: KBFL Meadows
United States
More flights between these airports :: More routes between these airports
Route:
File this flight plan on PilotEdge
Remarks:
Altitude:
(Current/Filed)
7,500ft
Speed:
(Current/Filed)
105kts
Departed: 02-Oct-22 11:34 AM
Arrived: 02-Oct-22 12:22 PM
Distance/Time
Traveled:
76nm/0:48
Distance/Time
To Go:
Arrived

Flight Plot

Page will automatically refresh every two minutes.


Map Options




Map Legend


Flown Route
Filed Route
Departure Airport
Arrival Airport
Navaid (VOR, NDB)
Fix

Horizontal Profiles

Position Reports

Time Latitude Longitude Heading Altitude Ground
Speed
02-Oct-22 11:27 34.896951 -120.446158 273 264ft 0kts
02-Oct-22 11:28 34.896951 -120.446158 273 264ft 0kts
02-Oct-22 11:29 34.896951 -120.446158 273 264ft 0kts
02-Oct-22 11:30 34.895937 -120.447145 134 264ft 15kts
02-Oct-22 11:31 34.893887 -120.445239 147 264ft 0kts
02-Oct-22 11:32 34.893389 -120.445209 187 264ft 0kts
02-Oct-22 11:33 34.896623 -120.450380 319 352ft 68kts
02-Oct-22 11:34 34.911246 -120.467743 311 1119ft 71kts
02-Oct-22 11:35 34.925068 -120.482730 355 1934ft 63kts
02-Oct-22 11:36 34.939343 -120.466912 62 2659ft 81kts
02-Oct-22 11:37 34.945009 -120.439946 70 3371ft 86kts
02-Oct-22 11:38 34.952606 -120.410807 65 3943ft 89kts
02-Oct-22 11:39 34.961854 -120.383529 54 4574ft 83kts
02-Oct-22 11:40 34.970369 -120.356462 70 5107ft 90kts
02-Oct-22 11:41 34.977217 -120.325926 60 5568ft 93kts
02-Oct-22 11:42 34.988084 -120.297519 61 6045ft 95kts
02-Oct-22 11:43 34.998632 -120.268753 58 6553ft 90kts
02-Oct-22 11:44 35.008246 -120.240505 62 7076ft 88kts
02-Oct-22 11:45 35.018688 -120.211057 60 7397ft 99kts
02-Oct-22 11:46 35.029230 -120.177862 63 7537ft 104kts
02-Oct-22 11:47 35.041927 -120.145418 57 7607ft 103kts
02-Oct-22 11:48 35.055943 -120.113707 63 7626ft 111kts
02-Oct-22 11:49 35.067461 -120.077808 65 7515ft 114kts
02-Oct-22 11:50 35.077834 -120.041099 65 7430ft 112kts
02-Oct-22 11:51 35.088812 -120.005763 65 7433ft 110kts
02-Oct-22 11:52 35.099800 -119.970739 60 7452ft 109kts
02-Oct-22 11:53 35.111846 -119.936112 61 7433ft 112kts
02-Oct-22 11:54 35.124472 -119.902083 61 7493ft 109kts
02-Oct-22 11:55 35.136171 -119.867116 63 7505ft 111kts
02-Oct-22 11:56 35.147941 -119.832182 62 7486ft 112kts
02-Oct-22 11:57 35.161249 -119.796384 60 7219ft 121kts
02-Oct-22 11:58 35.177977 -119.760172 49 6742ft 120kts
02-Oct-22 11:59 35.192608 -119.723310 60 6360ft 122kts
02-Oct-22 12:00 35.207293 -119.685595 61 5906ft 122kts
02-Oct-22 12:01 35.221442 -119.648228 61 5549ft 120kts
02-Oct-22 12:02 35.234928 -119.612837 60 5528ft 112kts
02-Oct-22 12:03 35.244029 -119.576558 68 5562ft 114kts
02-Oct-22 12:04 35.253014 -119.538734 69 5458ft 115kts
02-Oct-22 12:05 35.263374 -119.502020 63 5412ft 113kts
02-Oct-22 12:06 35.275730 -119.466349 61 5355ft 114kts
02-Oct-22 12:07 35.288951 -119.430780 62 5227ft 115kts
02-Oct-22 12:08 35.301567 -119.394014 61 4978ft 119kts
02-Oct-22 12:09 35.314755 -119.356653 61 4676ft 119kts
02-Oct-22 12:10 35.327220 -119.319106 65 4423ft 119kts
02-Oct-22 12:11 35.339468 -119.280468 64 3993ft 124kts
02-Oct-22 12:12 35.350613 -119.241601 68 3660ft 117kts
02-Oct-22 12:13 35.360138 -119.204418 68 3428ft 111kts
02-Oct-22 12:14 35.374372 -119.173764 25 3269ft 109kts
02-Oct-22 12:15 35.402388 -119.157109 25 2776ft 109kts
02-Oct-22 12:16 35.418459 -119.129090 71 2195ft 102kts
02-Oct-22 12:17 35.424885 -119.098240 73 1619ft 87kts
02-Oct-22 12:18 35.416291 -119.073179 125 1229ft 83kts
02-Oct-22 12:19 35.414984 -119.054738 44 885ft 67kts
02-Oct-22 12:20 35.427925 -119.049456 321 549ft 65kts
02-Oct-22 12:21 35.436523 -119.057918 47 495ft 2kts
02-Oct-22 12:22 35.434978 -119.055316 135 495ft 24kts
02-Oct-22 12:23 35.435075 -119.053236 89 502ft 0kts

Navigation Log

Ident Type
Flight plan parsing failed, navigation log unavailable